createdAt,value
2022-07-30T00:02:12.353Z,10.10
2022-07-30T00:04:40.334Z,11.40
2022-07-30T00:07:08.698Z,12.80
2022-07-30T00:09:36.881Z,10.50
2022-07-30T00:12:06.650Z,10.20
2022-07-30T00:14:35.496Z,12.90
2022-07-30T00:17:05.166Z,9.50
2022-07-30T00:19:34.278Z,11.00
2022-07-30T00:22:03.833Z,9.80
2022-07-30T00:24:31.881Z,11.60
2022-07-30T00:27:00.148Z,10.40
2022-07-30T00:29:28.408Z,14.00
2022-07-30T00:31:56.646Z,10.50
2022-07-30T00:34:24.652Z,11.40
2022-07-30T00:36:52.893Z,11.60
2022-07-30T00:39:20.956Z,11.80
2022-07-30T00:41:59.924Z,11.90
2022-07-30T00:44:29.023Z,12.00
2022-07-30T00:46:57.916Z,9.80
2022-07-30T00:49:26.956Z,11.50
2022-07-30T00:51:55.642Z,9.70
2022-07-30T00:54:23.621Z,10.60
2022-07-30T00:56:52.046Z,11.80
2022-07-30T00:59:20.104Z,11.90
2022-07-30T01:01:48.274Z,10.40
2022-07-30T01:04:16.587Z,12.70
2022-07-30T01:06:44.648Z,13.00
2022-07-30T01:09:12.766Z,9.80
2022-07-30T01:11:43.431Z,10.70
2022-07-30T01:14:12.302Z,12.50
2022-07-30T01:16:42.916Z,9.80
2022-07-30T01:19:48.586Z,10.40
2022-07-30T01:22:24.301Z,9.90
2022-07-30T01:25:20.811Z,10.90
2022-07-30T01:27:55.231Z,12.30
2022-07-30T01:30:28.403Z,10.20
2022-07-30T01:32:59.054Z,10.30
2022-07-30T01:35:30.952Z,11.10
2022-07-30T01:38:01.038Z,10.80
2022-07-30T01:40:31.049Z,11.50
2022-07-30T01:43:02.076Z,13.20
2022-07-30T01:45:32.304Z,11.00
2022-07-30T01:48:11.757Z,10.30
2022-07-30T01:50:44.861Z,11.70
2022-07-30T01:53:17.935Z,11.60
2022-07-30T01:55:47.042Z,10.70
2022-07-30T01:58:19.283Z,11.50
2022-07-30T02:00:51.120Z,12.70
2022-07-30T02:03:19.284Z,11.90
2022-07-30T02:05:55.897Z,10.40
2022-07-30T02:08:44.444Z,13.00
2022-07-30T02:11:36.907Z,10.50
2022-07-30T02:14:14.807Z,9.70
2022-07-30T02:16:46.223Z,10.20
2022-07-30T02:19:17.385Z,11.80
2022-07-30T02:21:57.151Z,17.30
2022-07-30T02:24:29.742Z,10.60
2022-07-30T02:27:04.433Z,11.80
2022-07-30T02:29:34.779Z,10.80
2022-07-30T02:32:08.676Z,10.40
2022-07-30T02:34:40.485Z,11.10
2022-07-30T02:37:11.380Z,11.50
2022-07-30T02:39:42.860Z,11.50
2022-07-30T02:42:14.032Z,11.60
2022-07-30T02:44:45.627Z,12.60
2022-07-30T02:47:16.730Z,10.30
2022-07-30T02:50:00.927Z,12.30
2022-07-30T02:52:30.385Z,10.10
2022-07-30T02:55:00.449Z,11.00
2022-07-30T02:57:33.230Z,10.90
2022-07-30T03:00:02.778Z,10.10
2022-07-30T03:02:33.771Z,12.50
2022-07-30T03:05:04.481Z,10.90
2022-07-30T03:07:36.011Z,11.30
2022-07-30T03:10:05.456Z,11.70
2022-07-30T03:12:36.196Z,12.30
2022-07-30T03:15:05.161Z,15.90
2022-07-30T03:17:39.211Z,12.20
2022-07-30T03:20:19.026Z,10.60
2022-07-30T03:22:53.398Z,10.80
2022-07-30T03:25:27.373Z,11.10
2022-07-30T03:27:58.230Z,12.00
2022-07-30T03:30:28.375Z,11.90
2022-07-30T03:32:58.162Z,13.40
2022-07-30T03:35:27.380Z,10.60
2022-07-30T03:38:00.761Z,11.10
2022-07-30T03:40:30.047Z,11.20
2022-07-30T03:42:58.695Z,9.60
2022-07-30T03:45:28.159Z,10.90
2022-07-30T03:48:02.399Z,14.20
2022-07-30T03:50:34.613Z,11.70
2022-07-30T03:53:04.810Z,11.40
2022-07-30T03:55:34.467Z,12.00
2022-07-30T03:58:20.701Z,12.40
2022-07-30T04:00:51.192Z,12.40
2022-07-30T04:03:30.133Z,13.90
2022-07-30T04:06:03.457Z,16.60
2022-07-30T04:08:31.741Z,14.20
2022-07-30T04:10:59.821Z,12.60
2022-07-30T04:13:48.045Z,14.00
2022-07-30T04:16:39.188Z,13.10
2022-07-30T04:19:15.888Z,13.50
2022-07-30T04:21:47.565Z,14.90
2022-07-30T04:24:16.190Z,13.60
2022-07-30T04:31:47.918Z,11.70
2022-07-30T04:34:34.959Z,11.50
2022-07-30T04:39:32.769Z,11.50
2022-07-30T04:42:01.836Z,11.50
2022-07-30T04:44:39.115Z,13.90
2022-07-30T04:47:36.474Z,13.10
2022-07-30T04:50:26.869Z,12.80
2022-07-30T04:52:58.828Z,12.90
2022-07-30T04:55:35.877Z,12.00
2022-07-30T04:58:05.156Z,13.70
2022-07-30T05:00:40.970Z,13.60
2022-07-30T05:03:14.602Z,13.00
2022-07-30T05:05:46.758Z,12.30
2022-07-30T05:08:15.366Z,12.40
2022-07-30T05:10:44.930Z,12.90
2022-07-30T05:13:14.492Z,12.80
2022-07-30T05:15:44.891Z,12.80
2022-07-30T05:18:14.064Z,11.90
2022-07-30T05:20:44.386Z,13.50
2022-07-30T05:23:23.705Z,12.80
2022-07-30T05:26:14.730Z,14.40
2022-07-30T05:28:49.572Z,11.40
2022-07-30T05:31:25.686Z,13.80
2022-07-30T05:34:03.021Z,12.30
2022-07-30T05:36:38.010Z,13.70
2022-07-30T05:39:06.327Z,11.70
2022-07-30T05:41:57.422Z,16.10
2022-07-30T05:44:34.931Z,12.50
2022-07-30T05:47:03.334Z,13.60
2022-07-30T05:49:31.766Z,11.90
2022-07-30T05:52:06.968Z,13.10
2022-07-30T05:54:35.744Z,13.60
2022-07-30T05:57:09.725Z,13.60
2022-07-30T05:59:41.692Z,13.80
2022-07-30T06:02:26.078Z,13.60
2022-07-30T06:05:14.360Z,14.50
2022-07-30T06:07:43.738Z,15.50
2022-07-30T06:10:12.276Z,15.10
2022-07-30T06:12:42.465Z,12.40
2022-07-30T06:15:11.624Z,13.90
2022-07-30T06:17:52.029Z,14.20
2022-07-30T06:20:36.872Z,15.10
2022-07-30T06:23:33.981Z,15.50
2022-07-30T06:26:23.655Z,18.40
2022-07-30T06:28:51.871Z,12.50
2022-07-30T06:31:30.442Z,14.10
2022-07-30T06:33:58.834Z,14.10
2022-07-30T06:36:29.152Z,15.40
2022-07-30T06:39:02.653Z,13.70
2022-07-30T06:41:49.158Z,16.50
2022-07-30T06:44:17.234Z,17.10
2022-07-30T06:47:08.060Z,14.50
2022-07-30T06:49:38.973Z,17.00
2022-07-30T06:52:09.533Z,16.60
2022-07-30T06:54:37.626Z,19.20
2022-07-30T06:57:15.888Z,26.30
2022-07-30T06:59:56.208Z,19.70
2022-07-30T07:02:37.425Z,19.10
2022-07-30T07:05:15.908Z,14.70
2022-07-30T07:07:58.362Z,14.50
2022-07-30T07:10:29.817Z,17.30
2022-07-30T07:13:24.194Z,16.10
2022-07-30T07:15:52.878Z,15.30
2022-07-30T07:18:22.119Z,12.90
2022-07-30T07:20:58.035Z,14.30
2022-07-30T07:23:26.347Z,16.00
2022-07-30T07:26:12.136Z,15.60
2022-07-30T07:28:40.359Z,15.10
2022-07-30T07:31:10.051Z,17.90
2022-07-30T07:33:40.574Z,14.60
2022-07-30T07:36:09.131Z,15.00
2022-07-30T07:38:37.681Z,15.90
2022-07-30T07:43:34.542Z,13.70
2022-07-30T07:46:03.052Z,12.10
2022-07-30T07:48:33.143Z,12.90
2022-07-30T07:51:47.766Z,16.40
2022-07-30T07:54:21.506Z,14.30
2022-07-30T07:56:52.905Z,12.10
2022-07-30T07:59:23.680Z,11.20
2022-07-30T08:01:59.724Z,10.10
2022-07-30T08:04:54.556Z,11.20
2022-07-30T08:07:22.528Z,9.30
2022-07-30T08:10:19.561Z,9.50
2022-07-30T08:13:06.424Z,9.10
2022-07-30T08:16:14.809Z,9.70
2022-07-30T08:19:01.345Z,8.90
2022-07-30T08:21:34.472Z,9.00
2022-07-30T08:24:03.089Z,12.90
2022-07-30T08:26:31.089Z,10.70
2022-07-30T08:28:59.664Z,11.10
2022-07-30T08:31:28.131Z,9.90
2022-07-30T08:33:56.206Z,12.90
2022-07-30T08:36:26.065Z,12.90
2022-07-30T08:38:54.903Z,11.60
2022-07-30T08:41:23.391Z,13.80
2022-07-30T08:43:51.561Z,12.70
2022-07-30T08:46:24.684Z,14.60
2022-07-30T08:49:00.533Z,15.80
2022-07-30T08:51:38.953Z,12.20
2022-07-30T08:54:23.988Z,13.50
2022-07-30T08:56:52.209Z,16.40
2022-07-30T08:59:24.787Z,17.10
2022-07-30T09:02:13.515Z,18.40
2022-07-30T09:04:54.754Z,15.70
2022-07-30T09:07:23.564Z,17.90
2022-07-30T09:15:22.434Z,16.40
2022-07-30T09:17:53.280Z,20.00
2022-07-30T09:20:27.649Z,28.90
2022-07-30T09:22:58.527Z,20.60
2022-07-30T09:25:47.985Z,23.10
2022-07-30T09:28:35.023Z,17.80
2022-07-30T09:31:15.388Z,17.20
2022-07-30T09:34:02.136Z,14.30
2022-07-30T09:36:45.407Z,15.90
2022-07-30T09:39:59.229Z,16.10
2022-07-30T09:42:46.546Z,14.60
2022-07-30T09:45:16.255Z,10.80
2022-07-30T09:47:50.594Z,14.20
2022-07-30T09:50:29.479Z,13.80
2022-07-30T09:53:09.046Z,11.50
2022-07-30T09:55:41.918Z,13.30
2022-07-30T09:58:16.721Z,16.80
2022-07-30T10:00:59.731Z,12.70
2022-07-30T10:03:47.798Z,11.50
2022-07-30T10:09:37.454Z,12.40
2022-07-30T10:12:10.744Z,11.50
2022-07-30T10:14:44.029Z,9.80
2022-07-30T10:17:15.190Z,13.10
2022-07-30T10:19:53.736Z,11.10
2022-07-30T10:22:55.310Z,12.60
2022-07-30T10:28:16.453Z,11.00
2022-07-30T10:30:45.432Z,10.00
2022-07-30T10:33:35.200Z,11.00
2022-07-30T10:38:34.412Z,8.70
2022-07-30T10:41:11.872Z,27.60
2022-07-30T10:44:01.311Z,11.50
2022-07-30T10:47:10.609Z,8.60
2022-07-30T10:49:41.144Z,21.40
2022-07-30T10:52:12.298Z,9.30
2022-07-30T10:54:45.202Z,10.10
2022-07-30T10:57:22.531Z,12.00
2022-07-30T11:00:00.748Z,8.40
2022-07-30T11:02:30.513Z,10.90
2022-07-30T11:05:18.309Z,9.40
2022-07-30T11:07:47.377Z,9.00
2022-07-30T11:10:39.465Z,8.90
2022-07-30T11:13:08.885Z,7.70
2022-07-30T11:15:56.425Z,9.30
2022-07-30T11:18:28.812Z,8.10
2022-07-30T11:21:21.259Z,11.00
2022-07-30T11:23:54.749Z,7.90
2022-07-30T11:26:46.717Z,7.10
2022-07-30T11:29:50.977Z,8.00
2022-07-30T11:32:32.866Z,8.30
2022-07-30T11:35:34.357Z,11.00
2022-07-30T11:38:08.008Z,10.40
2022-07-30T11:40:40.085Z,8.90
2022-07-30T11:43:36.280Z,8.10
2022-07-30T11:46:15.809Z,8.30
2022-07-30T11:49:08.852Z,7.20
2022-07-30T11:51:45.651Z,12.90
2022-07-30T11:54:14.763Z,8.70
2022-07-30T11:56:55.153Z,11.30
2022-07-30T11:59:23.413Z,7.90
2022-07-30T12:04:25.634Z,9.90
2022-07-30T12:06:53.876Z,9.20
2022-07-30T12:11:58.027Z,8.00
2022-07-30T12:14:26.116Z,8.00
2022-07-30T12:16:55.171Z,11.20
2022-07-30T12:19:23.387Z,12.70
2022-07-30T12:21:53.678Z,16.80
2022-07-30T12:24:26.933Z,10.10
2022-07-30T12:27:06.060Z,11.90
2022-07-30T12:29:35.886Z,11.80
2022-07-30T12:32:04.419Z,17.00
2022-07-30T12:37:10.378Z,14.80
2022-07-30T12:39:38.667Z,16.50
2022-07-30T12:42:20.588Z,14.60
2022-07-30T12:44:50.399Z,18.80
2022-07-30T12:47:26.471Z,20.10
2022-07-30T12:50:00.658Z,15.90
2022-07-30T12:52:32.680Z,17.50
2022-07-30T12:55:04.853Z,17.20
2022-07-30T12:57:52.212Z,13.00
2022-07-30T13:00:21.071Z,16.90
2022-07-30T13:02:49.230Z,20.10
2022-07-30T13:05:17.255Z,18.10
2022-07-30T13:07:59.159Z,14.10
2022-07-30T13:10:31.136Z,17.10
2022-07-30T13:12:59.959Z,17.10
2022-07-30T13:15:28.699Z,12.90
2022-07-30T13:17:56.874Z,16.20
2022-07-30T13:20:24.860Z,9.10
2022-07-30T13:22:52.964Z,15.30
2022-07-30T13:25:20.964Z,13.00
2022-07-30T13:27:49.059Z,14.20
2022-07-30T13:30:17.088Z,14.10
2022-07-30T13:32:45.206Z,13.60
2022-07-30T13:35:13.273Z,12.90
2022-07-30T13:37:41.358Z,14.20
2022-07-30T13:40:10.268Z,13.60
2022-07-30T13:42:38.251Z,11.30
2022-07-30T13:45:07.453Z,10.30
2022-07-30T13:47:35.786Z,9.90
2022-07-30T13:50:04.314Z,12.40
2022-07-30T13:52:32.512Z,8.30
2022-07-30T13:55:00.721Z,9.50
2022-07-30T13:57:28.893Z,13.30
2022-07-30T13:59:57.337Z,9.80
2022-07-30T14:02:25.273Z,11.00
2022-07-30T14:04:53.582Z,12.20
2022-07-30T14:07:21.565Z,10.90
2022-07-30T14:09:54.256Z,12.30
2022-07-30T14:12:22.751Z,10.70
2022-07-30T14:14:50.792Z,14.30
2022-07-30T14:17:19.101Z,14.10
2022-07-30T14:19:47.787Z,12.80
2022-07-30T14:22:15.933Z,15.50
2022-07-30T14:24:43.882Z,12.10
2022-07-30T14:27:11.977Z,13.60
2022-07-30T14:29:40.075Z,16.60
2022-07-30T14:32:08.096Z,11.20
2022-07-30T14:34:36.214Z,9.60
2022-07-30T14:37:05.011Z,9.60
2022-07-30T14:39:33.417Z,9.00
2022-07-30T14:42:01.870Z,9.90
2022-07-30T14:44:30.042Z,7.70
2022-07-30T14:46:58.325Z,9.10
2022-07-30T14:49:26.463Z,8.30
2022-07-30T14:51:55.262Z,7.60
2022-07-30T14:54:23.340Z,9.30
2022-07-30T14:56:59.148Z,8.60
2022-07-30T14:59:28.204Z,8.20
2022-07-30T15:01:57.109Z,10.50
2022-07-30T15:04:25.634Z,7.60
2022-07-30T15:06:54.059Z,8.80
2022-07-30T15:09:22.233Z,7.80
2022-07-30T15:12:09.089Z,7.20
2022-07-30T15:14:40.029Z,5.90
2022-07-30T15:17:08.663Z,8.10
2022-07-30T15:19:36.849Z,8.70
2022-07-30T15:22:14.460Z,8.90
2022-07-30T15:24:42.624Z,8.80
2022-07-30T15:27:10.695Z,7.20
2022-07-30T15:32:07.791Z,7.30
2022-07-30T15:37:05.254Z,8.30
2022-07-30T15:39:34.319Z,9.60
2022-07-30T15:44:31.801Z,10.80
2022-07-30T15:47:00.964Z,7.80
2022-07-30T15:49:29.328Z,6.80
2022-07-30T15:51:59.804Z,7.20
2022-07-30T15:54:28.493Z,7.80
2022-07-30T15:57:01.196Z,7.50
2022-07-30T15:59:30.605Z,7.10
2022-07-30T16:01:59.159Z,7.40
2022-07-30T16:04:31.037Z,8.10
2022-07-30T16:07:04.568Z,7.50
2022-07-30T16:09:32.695Z,9.30
2022-07-30T16:12:02.293Z,8.10
2022-07-30T16:14:30.884Z,6.20
2022-07-30T16:16:58.971Z,7.40
2022-07-30T16:19:27.137Z,7.50
2022-07-30T16:21:56.126Z,7.50
2022-07-30T16:24:24.429Z,8.00
2022-07-30T16:26:52.534Z,6.20
2022-07-30T16:29:20.566Z,6.60
2022-07-30T16:31:48.766Z,7.30
2022-07-30T16:34:17.467Z,6.20
2022-07-30T16:36:54.737Z,8.70
2022-07-30T16:39:22.818Z,6.70
2022-07-30T16:41:51.469Z,8.10
2022-07-30T16:44:19.381Z,10.30
2022-07-30T16:46:48.376Z,6.70
2022-07-30T16:49:16.756Z,7.40
2022-07-30T16:51:45.096Z,8.80
2022-07-30T16:54:13.410Z,7.80
2022-07-30T16:56:41.644Z,7.90
2022-07-30T16:59:13.666Z,7.00
2022-07-30T17:01:42.192Z,7.60
2022-07-30T17:04:10.300Z,6.90
2022-07-30T17:06:40.130Z,8.20
2022-07-30T17:09:08.587Z,8.10
2022-07-30T17:11:51.892Z,6.80
2022-07-30T17:14:25.287Z,9.10
2022-07-30T17:16:53.855Z,8.40
2022-07-30T17:19:22.029Z,9.00
2022-07-30T17:21:50.046Z,7.20
2022-07-30T17:24:18.309Z,8.10
2022-07-30T17:26:47.289Z,9.00
2022-07-30T17:29:16.969Z,7.40
2022-07-30T17:31:46.401Z,8.80
2022-07-30T17:34:18.359Z,7.30
2022-07-30T17:36:52.230Z,8.50
2022-07-30T17:40:27.113Z,8.20
2022-07-30T17:42:11.878Z,7.20
2022-07-30T17:44:42.085Z,6.30
2022-07-30T17:47:15.137Z,7.70
2022-07-30T17:49:44.634Z,8.60
2022-07-30T17:52:12.803Z,7.30
2022-07-30T17:54:41.389Z,7.60
2022-07-30T17:57:09.959Z,8.00
2022-07-30T17:59:38.313Z,7.90
2022-07-30T18:02:06.493Z,10.50
2022-07-30T18:04:35.436Z,12.40
2022-07-30T18:07:04.024Z,8.10
2022-07-30T18:09:36.167Z,8.00
2022-07-30T18:12:08.813Z,9.40
2022-07-30T18:14:37.440Z,11.30
2022-07-30T18:17:05.975Z,6.90
2022-07-30T18:19:34.816Z,8.80
2022-07-30T18:22:04.525Z,7.90
2022-07-30T18:24:32.985Z,8.00
2022-07-30T18:27:01.060Z,7.40
2022-07-30T18:29:29.200Z,9.00
2022-07-30T18:31:57.219Z,9.30
2022-07-30T18:34:25.325Z,9.50
2022-07-30T18:36:53.497Z,10.90
2022-07-30T18:39:21.845Z,7.00
2022-07-30T18:41:50.040Z,12.80
2022-07-30T18:44:18.092Z,7.60
2022-07-30T18:46:46.315Z,11.10
2022-07-30T18:49:35.701Z,8.80
2022-07-30T18:52:03.588Z,8.40
2022-07-30T18:54:32.007Z,7.60
2022-07-30T18:57:00.196Z,8.10
2022-07-30T18:59:28.392Z,9.60
2022-07-30T19:01:56.569Z,10.30
2022-07-30T19:04:24.888Z,8.90
2022-07-30T19:06:53.509Z,9.30
2022-07-30T19:09:24.994Z,11.70
2022-07-30T19:11:53.849Z,9.30
2022-07-30T19:16:52.699Z,9.10
2022-07-30T19:19:20.988Z,9.20
2022-07-30T19:21:49.158Z,8.20
2022-07-30T19:24:17.231Z,10.60
2022-07-30T19:26:45.356Z,9.10
2022-07-30T19:29:13.628Z,8.40
2022-07-30T19:31:41.796Z,11.10
2022-07-30T19:34:11.184Z,11.40
2022-07-30T19:36:39.924Z,8.70
2022-07-30T19:39:11.053Z,10.90
2022-07-30T19:41:44.320Z,12.60
2022-07-30T19:44:13.686Z,10.00
2022-07-30T19:46:48.772Z,8.40
2022-07-30T19:49:19.875Z,9.30
2022-07-30T19:54:39.669Z,8.60
2022-07-30T19:57:07.724Z,8.40
2022-07-30T19:59:55.816Z,9.90
2022-07-30T20:02:24.060Z,8.30
2022-07-30T20:04:54.770Z,8.50
2022-07-30T20:07:22.772Z,13.90
2022-07-30T20:09:56.646Z,9.60
2022-07-30T20:12:24.982Z,8.50
2022-07-30T20:14:55.137Z,8.60
2022-07-30T20:17:24.723Z,7.10
2022-07-30T20:19:58.027Z,9.00
2022-07-30T20:22:29.006Z,7.70
2022-07-30T20:24:57.399Z,8.10
2022-07-30T20:27:36.629Z,10.30
2022-07-30T20:30:09.227Z,7.10
2022-07-30T20:32:44.783Z,6.70
2022-07-30T20:35:15.108Z,9.30
2022-07-30T20:37:54.826Z,9.50
2022-07-30T20:40:26.365Z,8.00
2022-07-30T20:42:55.430Z,7.50
2022-07-30T20:45:25.429Z,9.20
2022-07-30T20:48:16.922Z,7.20
2022-07-30T20:50:49.252Z,6.40
2022-07-30T20:53:17.703Z,7.50
2022-07-30T20:55:46.170Z,7.60
2022-07-30T20:58:16.525Z,6.80
2022-07-30T21:00:49.541Z,9.90
2022-07-30T21:03:22.517Z,6.90
2022-07-30T21:05:51.301Z,7.70
2022-07-30T21:08:25.074Z,7.40
2022-07-30T21:10:55.128Z,8.30
2022-07-30T21:13:26.047Z,13.30
2022-07-30T21:16:02.317Z,6.80
2022-07-30T21:18:32.837Z,8.30
2022-07-30T21:21:04.959Z,8.50
2022-07-30T21:23:33.925Z,8.30
2022-07-30T21:26:05.911Z,7.70
2022-07-30T21:28:38.893Z,6.90
2022-07-30T21:31:12.104Z,9.40
2022-07-30T21:33:42.371Z,7.80
2022-07-30T21:36:11.168Z,8.10
2022-07-30T21:41:14.030Z,7.50
2022-07-30T21:43:46.729Z,7.90
2022-07-30T21:46:24.955Z,8.40
2022-07-30T21:48:58.461Z,10.80
2022-07-30T21:51:27.792Z,7.40
2022-07-30T21:53:57.783Z,8.00
2022-07-30T21:56:26.065Z,7.90
2022-07-30T21:58:54.207Z,8.10
2022-07-30T22:01:22.827Z,9.40
2022-07-30T22:04:03.633Z,12.80
2022-07-30T22:06:38.442Z,10.00
2022-07-30T22:09:18.112Z,7.10
2022-07-30T22:14:16.432Z,7.70
2022-07-30T22:16:46.515Z,8.30
2022-07-30T22:19:15.655Z,12.10
2022-07-30T22:21:46.434Z,9.40
2022-07-30T22:24:28.741Z,7.50
2022-07-30T22:27:01.477Z,8.50
2022-07-30T22:29:38.964Z,8.10
2022-07-30T22:34:36.339Z,10.30
2022-07-30T22:37:04.401Z,8.40
2022-07-30T22:39:50.574Z,7.60
2022-07-30T22:42:24.401Z,10.40
2022-07-30T22:44:55.445Z,9.80
2022-07-30T22:50:11.895Z,12.30
2022-07-30T22:52:48.997Z,10.10
2022-07-30T22:55:24.452Z,10.00
2022-07-30T22:57:53.059Z,9.10
2022-07-30T23:00:28.132Z,10.20
2022-07-30T23:02:57.752Z,9.20
2022-07-30T23:05:26.442Z,7.80
2022-07-30T23:10:25.562Z,10.20
2022-07-30T23:12:17.069Z,9.50
2022-07-30T23:12:56.606Z,12.70
2022-07-30T23:15:25.045Z,10.10
2022-07-30T23:17:53.370Z,9.30
2022-07-30T23:20:22.532Z,9.60
2022-07-30T23:22:51.333Z,10.90
2022-07-30T23:25:19.534Z,10.60
2022-07-30T23:27:47.774Z,11.30
2022-07-30T23:30:16.004Z,9.70
2022-07-30T23:32:44.051Z,11.90
2022-07-30T23:35:12.311Z,9.50
2022-07-30T23:37:48.488Z,10.70
2022-07-30T23:40:20.223Z,9.70
2022-07-30T23:42:50.263Z,9.40
2022-07-30T23:45:19.170Z,10.10
2022-07-30T23:48:01.283Z,10.80
2022-07-30T23:50:32.553Z,10.00
2022-07-30T23:53:01.757Z,9.00
2022-07-30T23:55:31.686Z,10.40
2022-07-30T23:58:00.378Z,10.80
